createdAt,value
2022-07-30T00:00:04.647Z,19.59
2022-07-30T00:01:04.799Z,19.59
2022-07-30T00:02:04.700Z,19.55
2022-07-30T00:03:04.730Z,19.51
2022-07-30T00:04:04.805Z,19.50
2022-07-30T00:05:04.788Z,19.48
2022-07-30T00:06:04.814Z,19.50
2022-07-30T00:07:04.838Z,19.46
2022-07-30T00:08:04.872Z,19.50
2022-07-30T00:09:04.898Z,19.48
2022-07-30T00:10:04.923Z,19.44
2022-07-30T00:11:04.952Z,19.41
2022-07-30T00:12:05.577Z,19.44
2022-07-30T00:13:05.007Z,19.43
2022-07-30T00:14:05.037Z,19.48
2022-07-30T00:15:05.064Z,19.37
2022-07-30T00:16:05.092Z,19.40
2022-07-30T00:17:05.244Z,19.41
2022-07-30T00:18:05.143Z,19.36
2022-07-30T00:19:05.175Z,19.44
2022-07-30T00:20:05.215Z,19.37
2022-07-30T00:21:05.228Z,19.37
2022-07-30T00:22:05.253Z,19.31
2022-07-30T00:23:05.280Z,19.39
2022-07-30T00:24:05.318Z,19.36
2022-07-30T00:25:05.339Z,19.31
2022-07-30T00:26:05.369Z,19.21
2022-07-30T00:27:05.420Z,19.28
2022-07-30T00:28:05.430Z,19.29
2022-07-30T00:29:05.455Z,19.26
2022-07-30T00:30:05.475Z,19.32
2022-07-30T00:31:05.559Z,19.32
2022-07-30T00:32:05.535Z,19.29
2022-07-30T00:33:05.570Z,19.22
2022-07-30T00:34:05.598Z,19.26
2022-07-30T00:35:05.612Z,19.21
2022-07-30T00:36:05.646Z,19.21
2022-07-30T00:37:05.669Z,19.26
2022-07-30T00:38:05.702Z,19.14
2022-07-30T00:39:05.725Z,19.13
2022-07-30T00:40:05.754Z,19.07
2022-07-30T00:41:05.783Z,19.11
2022-07-30T00:42:05.814Z,18.99
2022-07-30T00:43:05.838Z,19.06
2022-07-30T00:44:05.866Z,19.08
2022-07-30T00:45:05.890Z,19.00
2022-07-30T00:46:06.005Z,19.00
2022-07-30T00:47:05.946Z,18.99
2022-07-30T00:48:05.973Z,18.99
2022-07-30T00:49:06.053Z,18.95
2022-07-30T00:50:06.030Z,18.98
2022-07-30T00:51:06.055Z,18.99
2022-07-30T00:52:06.087Z,18.95
2022-07-30T00:53:06.134Z,18.99
2022-07-30T00:54:06.140Z,19.00
2022-07-30T00:55:06.167Z,18.95
2022-07-30T00:56:06.195Z,19.10
2022-07-30T00:57:06.222Z,18.98
2022-07-30T00:58:06.248Z,19.08
2022-07-30T00:59:06.280Z,19.06
2022-07-30T01:00:06.307Z,18.99
2022-07-30T01:01:06.372Z,19.02
2022-07-30T01:02:06.397Z,19.07
2022-07-30T01:03:06.425Z,19.00
2022-07-30T01:04:06.417Z,19.00
2022-07-30T01:05:06.446Z,19.00
2022-07-30T01:06:06.475Z,18.91
2022-07-30T01:07:06.495Z,18.92
2022-07-30T01:08:06.528Z,18.84
2022-07-30T01:09:06.553Z,18.87
2022-07-30T01:10:06.582Z,18.91
2022-07-30T01:11:06.609Z,18.85
2022-07-30T01:12:06.636Z,18.81
2022-07-30T01:13:06.666Z,18.84
2022-07-30T01:14:06.694Z,18.82
2022-07-30T01:15:06.723Z,18.88
2022-07-30T01:16:06.788Z,18.87
2022-07-30T01:17:06.774Z,18.85
2022-07-30T01:18:06.800Z,18.84
2022-07-30T01:19:06.834Z,18.84
2022-07-30T01:20:06.861Z,18.87
2022-07-30T01:21:06.881Z,18.82
2022-07-30T01:22:06.915Z,18.84
2022-07-30T01:23:06.943Z,18.75
2022-07-30T01:24:06.979Z,18.85
2022-07-30T01:25:06.997Z,18.78
2022-07-30T01:26:07.021Z,18.87
2022-07-30T01:27:07.048Z,18.84
2022-07-30T01:28:07.094Z,18.88
2022-07-30T01:29:07.107Z,18.90
2022-07-30T01:30:07.132Z,18.87
2022-07-30T01:31:07.157Z,18.87
2022-07-30T01:32:07.249Z,18.91
2022-07-30T01:33:07.213Z,18.85
2022-07-30T01:34:07.243Z,18.84
2022-07-30T01:35:07.268Z,18.84
2022-07-30T01:36:07.299Z,18.84
2022-07-30T01:37:07.341Z,18.88
2022-07-30T01:38:07.367Z,18.90
2022-07-30T01:39:07.377Z,18.85
2022-07-30T01:40:07.412Z,18.80
2022-07-30T01:41:07.440Z,18.69
2022-07-30T01:42:07.471Z,18.67
2022-07-30T01:43:07.491Z,18.66
2022-07-30T01:44:07.516Z,18.69
2022-07-30T01:45:07.546Z,18.66
2022-07-30T01:46:07.592Z,18.72
2022-07-30T01:47:07.607Z,18.67
2022-07-30T01:48:07.626Z,18.67
2022-07-30T01:49:07.671Z,18.57
2022-07-30T01:50:07.678Z,18.57
2022-07-30T01:51:07.706Z,18.65
2022-07-30T01:52:07.737Z,18.58
2022-07-30T01:53:07.771Z,18.60
2022-07-30T01:54:07.787Z,18.55
2022-07-30T01:55:11.609Z,18.55
2022-07-30T01:56:10.623Z,18.50
2022-07-30T01:57:07.868Z,18.51
2022-07-30T01:58:07.902Z,18.55
2022-07-30T01:59:07.943Z,18.50
2022-07-30T02:00:07.956Z,18.55
2022-07-30T02:01:08.006Z,18.51
2022-07-30T02:02:08.006Z,18.51
2022-07-30T02:03:08.097Z,18.51
2022-07-30T02:04:08.065Z,18.50
2022-07-30T02:05:08.113Z,18.50
2022-07-30T02:06:08.116Z,18.44
2022-07-30T02:07:08.146Z,18.37
2022-07-30T02:08:08.175Z,18.32
2022-07-30T02:09:11.085Z,18.32
2022-07-30T02:10:08.222Z,18.32
2022-07-30T02:11:08.252Z,18.23
2022-07-30T02:12:08.276Z,18.20
2022-07-30T02:13:08.305Z,18.29
2022-07-30T02:14:08.334Z,18.26
2022-07-30T02:15:08.364Z,18.25
2022-07-30T02:16:08.411Z,18.23
2022-07-30T02:17:08.417Z,18.21
2022-07-30T02:18:08.443Z,18.11
2022-07-30T02:19:08.468Z,18.07
2022-07-30T02:20:09.982Z,18.03
2022-07-30T02:21:11.654Z,18.07
2022-07-30T02:22:08.898Z,18.05
2022-07-30T02:23:08.578Z,18.07
2022-07-30T02:24:08.609Z,18.07
2022-07-30T02:25:08.631Z,18.02
2022-07-30T02:26:08.656Z,18.10
2022-07-30T02:27:08.689Z,18.12
2022-07-30T02:28:08.709Z,18.05
2022-07-30T02:29:11.413Z,18.10
2022-07-30T02:30:08.779Z,18.10
2022-07-30T02:31:17.303Z,18.00
2022-07-30T02:32:08.817Z,18.00
2022-07-30T02:33:08.846Z,17.99
2022-07-30T02:34:08.894Z,17.99
2022-07-30T02:35:08.900Z,17.97
2022-07-30T02:36:11.198Z,17.96
2022-07-30T02:37:08.956Z,17.95
2022-07-30T02:38:08.979Z,17.97
2022-07-30T02:39:09.012Z,17.99
2022-07-30T02:40:09.032Z,17.96
2022-07-30T02:41:09.061Z,17.99
2022-07-30T02:42:09.086Z,17.97
2022-07-30T02:43:09.118Z,18.00
2022-07-30T02:44:09.145Z,18.00
2022-07-30T02:45:09.177Z,18.02
2022-07-30T02:46:09.191Z,17.99
2022-07-30T02:47:09.285Z,17.89
2022-07-30T02:48:09.249Z,17.82
2022-07-30T02:49:09.315Z,17.84
2022-07-30T02:50:09.306Z,17.74
2022-07-30T02:51:09.328Z,17.82
2022-07-30T02:52:09.427Z,17.77
2022-07-30T02:53:09.386Z,17.72
2022-07-30T02:54:09.414Z,17.71
2022-07-30T02:55:09.436Z,17.74
2022-07-30T02:56:09.469Z,17.66
2022-07-30T02:57:09.490Z,17.63
2022-07-30T02:58:09.517Z,17.59
2022-07-30T02:59:09.549Z,17.62
2022-07-30T03:00:09.573Z,17.58
2022-07-30T03:01:09.638Z,17.58
2022-07-30T03:02:09.666Z,17.55
2022-07-30T03:03:09.652Z,17.56
2022-07-30T03:04:09.681Z,17.55
2022-07-30T03:05:09.708Z,17.54
2022-07-30T03:06:09.746Z,17.59
2022-07-30T03:07:10.062Z,17.51
2022-07-30T03:08:09.786Z,17.55
2022-07-30T03:09:09.809Z,17.48
2022-07-30T03:10:09.840Z,17.48
2022-07-30T03:11:09.866Z,17.49
2022-07-30T03:12:09.889Z,17.41
2022-07-30T03:13:09.916Z,17.55
2022-07-30T03:14:09.941Z,17.51
2022-07-30T03:15:09.974Z,17.38
2022-07-30T03:16:10.083Z,17.46
2022-07-30T03:17:10.034Z,17.48
2022-07-30T03:18:10.051Z,17.46
2022-07-30T03:19:10.077Z,17.46
2022-07-30T03:20:10.110Z,17.43
2022-07-30T03:21:10.134Z,17.41
2022-07-30T03:22:10.155Z,17.44
2022-07-30T03:23:10.185Z,17.46
2022-07-30T03:24:10.230Z,17.48
2022-07-30T03:25:10.243Z,17.44
2022-07-30T03:26:10.266Z,17.43
2022-07-30T03:27:10.290Z,17.40
2022-07-30T03:28:10.317Z,17.48
2022-07-30T03:29:10.345Z,17.43
2022-07-30T03:30:10.373Z,17.43
2022-07-30T03:31:10.482Z,17.48
2022-07-30T03:32:10.425Z,17.41
2022-07-30T03:33:10.454Z,17.43
2022-07-30T03:34:10.475Z,17.46
2022-07-30T03:35:17.035Z,17.40
2022-07-30T03:36:10.527Z,17.44
2022-07-30T03:37:10.557Z,17.41
2022-07-30T03:38:10.586Z,17.40
2022-07-30T03:39:10.613Z,17.43
2022-07-30T03:40:10.643Z,17.41
2022-07-30T03:41:10.666Z,17.46
2022-07-30T03:42:10.690Z,17.49
2022-07-30T03:43:32.658Z,17.46
2022-07-30T03:44:10.750Z,17.49
2022-07-30T03:45:10.773Z,17.31
2022-07-30T03:46:10.880Z,17.46
2022-07-30T03:47:10.824Z,17.37
2022-07-30T03:48:10.851Z,17.43
2022-07-30T03:49:10.912Z,17.48
2022-07-30T03:50:10.905Z,17.33
2022-07-30T03:51:10.947Z,17.37
2022-07-30T03:52:10.956Z,17.31
2022-07-30T03:53:10.983Z,17.30
2022-07-30T03:54:13.531Z,17.31
2022-07-30T03:55:11.034Z,17.36
2022-07-30T03:56:11.059Z,17.26
2022-07-30T03:57:11.093Z,17.28
2022-07-30T03:58:11.120Z,17.18
2022-07-30T03:59:11.144Z,17.18
2022-07-30T04:00:11.172Z,17.19
2022-07-30T04:01:11.193Z,17.21
2022-07-30T04:02:11.263Z,17.19
2022-07-30T04:03:11.249Z,17.19
2022-07-30T04:04:11.332Z,17.28
2022-07-30T04:05:11.305Z,17.26
2022-07-30T04:06:11.330Z,17.28
2022-07-30T04:07:11.351Z,17.30
2022-07-30T04:08:11.375Z,17.28
2022-07-30T04:09:11.409Z,17.25
2022-07-30T04:10:11.433Z,17.30
2022-07-30T04:11:11.457Z,17.31
2022-07-30T04:12:11.482Z,17.25
2022-07-30T04:13:11.591Z,17.25
2022-07-30T04:14:11.539Z,17.31
2022-07-30T04:16:37.947Z,17.23
2022-07-30T04:16:39.568Z,17.25
2022-07-30T04:17:11.648Z,17.26
2022-07-30T04:18:11.644Z,17.30
2022-07-30T04:19:11.670Z,17.26
2022-07-30T04:20:15.269Z,17.28
2022-07-30T04:21:17.191Z,17.38
2022-07-30T04:22:11.744Z,17.36
2022-07-30T04:23:11.778Z,17.25
2022-07-30T04:24:11.804Z,17.33
2022-07-30T04:25:11.829Z,17.25
2022-07-30T04:26:11.872Z,17.38
2022-07-30T04:27:19.053Z,17.30
2022-07-30T04:29:19.151Z,17.46
2022-07-30T04:30:15.936Z,17.44
2022-07-30T04:32:19.961Z,17.33
2022-07-30T04:33:19.974Z,17.33
2022-07-30T04:35:51.626Z,17.25
2022-07-30T04:36:24.026Z,17.26
2022-07-30T04:38:28.060Z,17.38
2022-07-30T04:39:28.075Z,17.33
2022-07-30T04:41:35.393Z,17.33
2022-07-30T04:42:32.125Z,17.34
2022-07-30T04:44:36.613Z,17.28
2022-07-30T04:45:36.164Z,17.31
2022-07-30T04:47:40.678Z,17.21
2022-07-30T04:48:40.757Z,17.22
2022-07-30T04:49:40.720Z,17.22
2022-07-30T04:50:40.768Z,17.28
2022-07-30T04:51:40.779Z,17.31
2022-07-30T04:52:40.797Z,17.33
2022-07-30T04:53:40.827Z,17.30
2022-07-30T04:54:40.852Z,17.30
2022-07-30T04:55:40.881Z,17.36
2022-07-30T04:56:40.929Z,17.23
2022-07-30T04:57:40.930Z,17.25
2022-07-30T04:58:40.957Z,17.26
2022-07-30T04:59:40.982Z,17.23
2022-07-30T05:00:41.545Z,17.36
2022-07-30T05:01:41.077Z,17.46
2022-07-30T05:02:41.078Z,17.46
2022-07-30T05:03:41.094Z,17.43
2022-07-30T05:04:41.118Z,17.51
2022-07-30T05:05:41.206Z,17.46
2022-07-30T05:06:41.173Z,17.49
2022-07-30T05:07:41.202Z,17.40
2022-07-30T05:08:41.227Z,17.49
2022-07-30T05:09:43.590Z,17.56
2022-07-30T05:10:41.277Z,17.62
2022-07-30T05:11:41.304Z,17.62
2022-07-30T05:12:41.330Z,17.64
2022-07-30T05:13:41.357Z,17.71
2022-07-30T05:14:44.354Z,17.62
2022-07-30T05:15:41.455Z,17.68
2022-07-30T05:16:41.439Z,17.82
2022-07-30T05:17:41.465Z,17.77
2022-07-30T05:18:41.495Z,17.78
2022-07-30T05:19:41.524Z,17.77
2022-07-30T05:20:41.551Z,17.86
2022-07-30T05:21:41.574Z,17.89
2022-07-30T05:22:42.864Z,18.00
2022-07-30T05:23:41.625Z,17.93
2022-07-30T05:24:41.658Z,18.10
2022-07-30T05:25:41.684Z,18.07
2022-07-30T05:26:41.711Z,18.20
2022-07-30T05:27:41.735Z,18.23
2022-07-30T05:28:41.765Z,18.29
2022-07-30T05:29:41.800Z,18.30
2022-07-30T05:30:41.910Z,18.35
2022-07-30T05:31:41.857Z,18.39
2022-07-30T05:32:41.874Z,18.39
2022-07-30T05:33:42.512Z,18.36
2022-07-30T05:34:41.935Z,18.25
2022-07-30T05:35:41.953Z,18.39
2022-07-30T05:36:41.982Z,18.42
2022-07-30T05:37:42.009Z,18.58
2022-07-30T05:38:42.038Z,18.67
2022-07-30T05:40:02.992Z,18.85
2022-07-30T05:40:42.095Z,18.82
2022-07-30T05:41:42.123Z,18.84
2022-07-30T05:42:42.150Z,18.87
2022-07-30T05:43:42.189Z,18.94
2022-07-30T05:44:42.207Z,18.99
2022-07-30T05:45:42.234Z,19.02
2022-07-30T05:46:42.322Z,19.00
2022-07-30T05:47:42.289Z,18.99
2022-07-30T05:48:42.329Z,19.07
2022-07-30T05:49:42.344Z,19.16
2022-07-30T05:50:42.376Z,19.25
2022-07-30T05:51:42.404Z,19.23
2022-07-30T05:52:42.436Z,19.25
2022-07-30T05:53:42.457Z,19.33
2022-07-30T05:54:42.492Z,19.37
2022-07-30T05:55:42.514Z,19.43
2022-07-30T05:56:42.547Z,19.41
2022-07-30T05:57:42.572Z,19.48
2022-07-30T05:58:42.603Z,19.46
2022-07-30T05:59:42.629Z,19.47
2022-07-30T06:00:42.657Z,19.50
2022-07-30T06:01:42.706Z,19.47
2022-07-30T06:02:42.713Z,19.46
2022-07-30T06:03:42.741Z,19.48
2022-07-30T06:04:46.323Z,19.46
2022-07-30T06:05:42.794Z,19.46
2022-07-30T06:06:42.825Z,19.46
2022-07-30T06:07:42.857Z,19.51
2022-07-30T06:08:42.888Z,19.48
2022-07-30T06:09:42.910Z,19.56
2022-07-30T06:10:42.943Z,19.58
2022-07-30T06:11:42.969Z,19.51
2022-07-30T06:12:42.998Z,19.29
2022-07-30T06:13:43.026Z,19.36
2022-07-30T06:14:43.054Z,19.40
2022-07-30T06:15:43.118Z,19.29
2022-07-30T06:16:43.111Z,19.26
2022-07-30T06:17:43.142Z,19.32
2022-07-30T06:18:43.169Z,19.37
2022-07-30T06:19:43.196Z,19.48
2022-07-30T06:20:43.229Z,19.44
2022-07-30T06:22:05.447Z,19.56
2022-07-30T06:22:43.284Z,19.56
2022-07-30T06:23:43.307Z,19.54
2022-07-30T06:24:43.342Z,19.54
2022-07-30T06:25:43.369Z,19.55
2022-07-30T06:26:43.394Z,19.55
2022-07-30T06:27:43.427Z,19.47
2022-07-30T06:28:43.458Z,19.55
2022-07-30T06:29:43.484Z,19.47
2022-07-30T06:30:43.554Z,19.48
2022-07-30T06:31:43.542Z,19.55
2022-07-30T06:32:43.579Z,19.59
2022-07-30T06:33:43.596Z,19.61
2022-07-30T06:34:43.624Z,19.54
2022-07-30T06:35:43.655Z,19.47
2022-07-30T06:36:43.686Z,19.32
2022-07-30T06:38:06.082Z,19.36
2022-07-30T06:38:43.753Z,19.29
2022-07-30T06:39:53.895Z,19.36
2022-07-30T06:40:43.794Z,19.33
2022-07-30T06:41:43.828Z,19.47
2022-07-30T06:42:43.858Z,19.44
2022-07-30T06:43:43.952Z,19.37
2022-07-30T06:44:43.912Z,19.43
2022-07-30T06:45:44.091Z,19.37
2022-07-30T06:46:44.023Z,19.37
2022-07-30T06:47:43.999Z,19.50
2022-07-30T06:48:44.061Z,19.59
2022-07-30T06:49:44.054Z,19.84
2022-07-30T06:50:44.094Z,20.01
2022-07-30T06:51:44.113Z,20.11
2022-07-30T06:52:44.166Z,20.23
2022-07-30T06:53:44.168Z,20.17
2022-07-30T06:54:44.201Z,20.29
2022-07-30T06:55:44.230Z,20.42
2022-07-30T06:56:44.257Z,20.43
2022-07-30T06:57:44.293Z,20.51
2022-07-30T06:58:44.320Z,20.42
2022-07-30T06:59:57.134Z,20.41
2022-07-30T07:00:44.376Z,20.36
2022-07-30T07:01:44.475Z,20.26
2022-07-30T07:02:44.433Z,20.32
2022-07-30T07:03:44.466Z,20.38
2022-07-30T07:04:44.552Z,20.52
2022-07-30T07:05:44.520Z,20.61
2022-07-30T07:06:44.554Z,20.84
2022-07-30T07:07:56.565Z,21.04
2022-07-30T07:08:44.614Z,21.19
2022-07-30T07:09:44.885Z,21.28
2022-07-30T07:10:44.676Z,21.54
2022-07-30T07:11:44.711Z,21.83
2022-07-30T07:12:44.733Z,21.94
2022-07-30T07:13:44.762Z,22.31
2022-07-30T07:14:44.795Z,22.60
2022-07-30T07:15:44.829Z,22.88
2022-07-30T07:16:44.897Z,23.12
2022-07-30T07:17:44.895Z,23.35
2022-07-30T07:18:44.925Z,23.60
2022-07-30T07:20:01.213Z,23.84
2022-07-30T07:20:44.987Z,23.97
2022-07-30T07:21:45.016Z,24.16
2022-07-30T07:22:45.243Z,24.25
2022-07-30T07:23:45.084Z,24.31
2022-07-30T07:24:45.113Z,24.31
2022-07-30T07:25:45.146Z,24.40
2022-07-30T07:26:45.180Z,24.18
2022-07-30T07:27:45.211Z,23.90
2022-07-30T07:28:45.245Z,23.73
2022-07-30T07:30:01.201Z,23.66
2022-07-30T07:30:45.367Z,23.55
2022-07-30T07:32:07.154Z,23.55
2022-07-30T07:32:45.375Z,23.65
2022-07-30T07:33:45.407Z,23.61
2022-07-30T07:34:45.436Z,23.68
2022-07-30T07:35:49.382Z,23.53
2022-07-30T07:36:45.500Z,23.50
2022-07-30T07:37:45.530Z,23.50
2022-07-30T07:38:45.565Z,23.43
2022-07-30T07:39:45.591Z,23.60
2022-07-30T07:40:45.636Z,23.43
2022-07-30T07:41:49.024Z,23.48
2022-07-30T07:42:45.688Z,23.60
2022-07-30T07:43:45.724Z,23.63
2022-07-30T07:44:45.752Z,23.68
2022-07-30T07:45:45.905Z,23.73
2022-07-30T07:46:45.839Z,23.68
2022-07-30T07:47:49.130Z,23.57
2022-07-30T07:48:45.902Z,23.68
2022-07-30T07:49:45.907Z,23.69
2022-07-30T07:50:45.935Z,23.61
2022-07-30T07:51:48.003Z,23.80
2022-07-30T07:52:46.003Z,23.90
2022-07-30T07:53:55.857Z,23.91
2022-07-30T07:54:46.070Z,23.88
2022-07-30T07:55:46.091Z,23.94
2022-07-30T07:56:46.121Z,23.70
2022-07-30T07:57:46.153Z,23.69
2022-07-30T07:58:46.187Z,23.60
2022-07-30T07:59:46.212Z,23.55
2022-07-30T08:00:46.245Z,23.53
2022-07-30T08:01:46.286Z,23.53
2022-07-30T08:02:46.391Z,23.58
2022-07-30T08:03:46.340Z,23.47
2022-07-30T08:04:46.371Z,23.36
2022-07-30T08:06:01.732Z,23.33
2022-07-30T08:06:46.481Z,23.38
2022-07-30T08:07:46.480Z,23.25
2022-07-30T08:08:46.494Z,23.17
2022-07-30T08:09:46.527Z,23.36
2022-07-30T08:10:46.554Z,23.33
2022-07-30T08:11:46.587Z,23.36
2022-07-30T08:12:46.615Z,23.32
2022-07-30T08:13:52.165Z,23.50
2022-07-30T08:14:46.678Z,23.55
2022-07-30T08:15:46.708Z,23.61
2022-07-30T08:16:46.794Z,23.68
2022-07-30T08:17:46.775Z,23.73
2022-07-30T08:18:46.800Z,23.58
2022-07-30T08:19:46.833Z,23.50
2022-07-30T08:20:46.863Z,23.43
2022-07-30T08:21:46.891Z,23.46
2022-07-30T08:22:46.921Z,23.47
2022-07-30T08:23:46.949Z,23.55
2022-07-30T08:24:46.989Z,23.48
2022-07-30T08:25:47.011Z,23.53
2022-07-30T08:26:47.052Z,23.53
2022-07-30T08:27:47.074Z,23.47
2022-07-30T08:28:47.107Z,23.55
2022-07-30T08:29:47.137Z,23.58
2022-07-30T08:30:47.168Z,23.63
2022-07-30T08:31:47.201Z,23.63
2022-07-30T08:32:47.234Z,23.66
2022-07-30T08:33:47.260Z,23.66
2022-07-30T08:34:47.290Z,23.68
2022-07-30T08:35:51.785Z,23.72
2022-07-30T08:36:47.353Z,23.72
2022-07-30T08:37:47.383Z,23.90
2022-07-30T08:38:47.412Z,23.94
2022-07-30T08:39:47.445Z,23.98
2022-07-30T08:40:47.782Z,24.12
2022-07-30T08:41:47.501Z,24.16
2022-07-30T08:42:47.535Z,24.18
2022-07-30T08:43:47.567Z,24.22
2022-07-30T08:44:47.600Z,24.25
2022-07-30T08:45:47.628Z,24.13
2022-07-30T08:46:47.866Z,24.03
2022-07-30T08:47:47.689Z,24.08
2022-07-30T08:48:47.726Z,24.12
2022-07-30T08:49:47.750Z,24.13
2022-07-30T08:50:47.789Z,24.20
2022-07-30T08:51:47.817Z,24.30
2022-07-30T08:52:47.844Z,24.27
2022-07-30T08:53:47.876Z,24.34
2022-07-30T08:54:47.906Z,24.40
2022-07-30T08:55:47.943Z,24.30
2022-07-30T08:56:47.966Z,24.34
2022-07-30T08:57:47.996Z,24.40
2022-07-30T08:58:48.030Z,24.57
2022-07-30T08:59:59.279Z,24.57
2022-07-30T09:00:48.140Z,24.53
2022-07-30T09:01:48.122Z,24.61
2022-07-30T09:02:48.152Z,24.65
2022-07-30T09:03:48.186Z,24.60
2022-07-30T09:04:48.219Z,24.35
2022-07-30T09:05:48.248Z,24.46
2022-07-30T09:06:48.274Z,24.43
2022-07-30T09:07:48.308Z,24.50
2022-07-30T09:08:48.339Z,24.58
2022-07-30T09:09:48.369Z,24.68
2022-07-30T09:10:52.715Z,24.76
2022-07-30T09:11:48.438Z,24.81
2022-07-30T09:12:48.466Z,24.78
2022-07-30T09:13:48.493Z,24.95
2022-07-30T09:14:48.525Z,25.02
2022-07-30T09:15:48.559Z,25.03
2022-07-30T09:16:48.589Z,25.03
2022-07-30T09:17:48.620Z,25.06
2022-07-30T09:18:48.648Z,24.90
2022-07-30T09:19:48.682Z,24.77
2022-07-30T09:20:48.709Z,24.83
2022-07-30T09:21:48.742Z,24.87
2022-07-30T09:22:48.777Z,24.71
2022-07-30T09:23:51.187Z,24.81
2022-07-30T09:24:48.834Z,24.90
2022-07-30T09:25:48.871Z,24.77
2022-07-30T09:26:48.925Z,24.81
2022-07-30T09:27:48.930Z,24.69
2022-07-30T09:28:48.961Z,24.73
2022-07-30T09:29:48.990Z,24.76
2022-07-30T09:30:49.025Z,24.73
2022-07-30T09:31:49.060Z,24.87
2022-07-30T09:32:49.111Z,24.87
2022-07-30T09:33:49.117Z,24.93
2022-07-30T09:34:49.150Z,24.81
2022-07-30T09:35:49.182Z,24.84
2022-07-30T09:36:49.223Z,24.80
2022-07-30T09:37:49.240Z,24.77
2022-07-30T09:38:49.276Z,24.77
2022-07-30T09:39:59.065Z,24.73
2022-07-30T09:40:49.339Z,24.93
2022-07-30T09:41:49.363Z,24.93
2022-07-30T09:42:49.397Z,24.88
2022-07-30T09:43:49.430Z,24.87
2022-07-30T09:44:49.462Z,24.88
2022-07-30T09:45:57.368Z,24.99
2022-07-30T09:46:49.520Z,25.08
2022-07-30T09:47:49.554Z,25.28
2022-07-30T09:48:49.663Z,25.28
2022-07-30T09:49:49.637Z,25.46
2022-07-30T09:50:49.955Z,25.57
2022-07-30T09:51:56.515Z,25.67
2022-07-30T09:52:49.718Z,25.60
2022-07-30T09:53:49.748Z,25.52
2022-07-30T09:54:51.344Z,25.54
2022-07-30T09:55:49.808Z,25.60
2022-07-30T09:56:54.030Z,25.45
2022-07-30T09:57:52.208Z,25.46
2022-07-30T09:58:49.913Z,25.30
2022-07-30T09:59:49.929Z,25.28
2022-07-30T10:00:50.008Z,25.38
2022-07-30T10:01:54.906Z,25.43
2022-07-30T10:02:50.023Z,25.55
2022-07-30T10:03:50.067Z,25.60
2022-07-30T10:04:50.084Z,25.64
2022-07-30T10:05:50.118Z,25.57
2022-07-30T10:06:50.154Z,25.58
2022-07-30T10:07:51.251Z,25.54
2022-07-30T10:08:50.217Z,25.54
2022-07-30T10:09:50.247Z,25.61
2022-07-30T10:10:50.948Z,25.50
2022-07-30T10:11:50.306Z,25.51
2022-07-30T10:12:50.341Z,25.58
2022-07-30T10:13:50.369Z,25.51
2022-07-30T10:14:50.402Z,25.54
2022-07-30T10:15:50.435Z,25.57
2022-07-30T10:16:50.471Z,25.55
2022-07-30T10:17:50.498Z,25.51
2022-07-30T10:18:50.530Z,25.64
2022-07-30T10:19:50.562Z,25.51
2022-07-30T10:20:50.591Z,25.38
2022-07-30T10:21:50.628Z,25.39
2022-07-30T10:22:50.735Z,25.50
2022-07-30T10:23:50.879Z,25.38
2022-07-30T10:24:50.827Z,25.50
2022-07-30T10:25:55.625Z,25.46
2022-07-30T10:26:50.782Z,25.28
2022-07-30T10:27:50.812Z,25.28
2022-07-30T10:28:50.842Z,25.36
2022-07-30T10:29:50.888Z,25.51
2022-07-30T10:30:51.189Z,25.67
2022-07-30T10:31:54.513Z,25.70
2022-07-30T10:32:52.406Z,25.77
2022-07-30T10:33:51.004Z,25.83
2022-07-30T10:34:51.035Z,25.91
2022-07-30T10:35:51.069Z,25.94
2022-07-30T10:36:51.098Z,25.92
2022-07-30T10:37:51.128Z,25.99
2022-07-30T10:38:52.776Z,26.01
2022-07-30T10:39:51.205Z,26.13
2022-07-30T10:40:51.227Z,26.29
2022-07-30T10:41:54.232Z,26.32
2022-07-30T10:42:51.289Z,26.35
2022-07-30T10:43:51.331Z,26.45
2022-07-30T10:44:51.355Z,26.35
2022-07-30T10:45:51.547Z,26.28
2022-07-30T10:46:51.417Z,26.25
2022-07-30T10:47:51.490Z,26.02
2022-07-30T10:48:51.533Z,25.94
2022-07-30T10:49:51.514Z,26.10
2022-07-30T10:50:51.547Z,26.09
2022-07-30T10:51:51.578Z,26.13
2022-07-30T10:52:51.605Z,26.29
2022-07-30T10:53:51.642Z,26.54
2022-07-30T10:54:51.671Z,26.54
2022-07-30T10:55:51.705Z,26.66
2022-07-30T10:56:51.737Z,26.63
2022-07-30T10:57:51.768Z,26.63
2022-07-30T10:58:51.799Z,26.47
2022-07-30T10:59:51.837Z,26.28
2022-07-30T11:00:52.057Z,26.23
2022-07-30T11:01:53.284Z,26.09
2022-07-30T11:02:51.930Z,26.12
2022-07-30T11:03:51.964Z,26.05
2022-07-30T11:04:52.007Z,25.99
2022-07-30T11:05:52.040Z,25.92
2022-07-30T11:06:52.061Z,25.92
2022-07-30T11:07:52.092Z,25.92
2022-07-30T11:08:52.155Z,25.90
2022-07-30T11:10:05.587Z,25.82
2022-07-30T11:10:52.185Z,25.90
2022-07-30T11:12:04.989Z,25.98
2022-07-30T11:12:53.033Z,26.07
2022-07-30T11:13:52.278Z,25.99
2022-07-30T11:14:52.313Z,25.95
2022-07-30T11:15:52.345Z,25.95
2022-07-30T11:16:52.374Z,26.10
2022-07-30T11:17:52.407Z,26.10
2022-07-30T11:19:19.603Z,26.05
2022-07-30T11:19:59.529Z,26.07
2022-07-30T11:20:52.503Z,26.12
2022-07-30T11:21:52.537Z,26.18
2022-07-30T11:22:52.565Z,26.23
2022-07-30T11:23:54.738Z,26.40
2022-07-30T11:24:52.803Z,26.63
2022-07-30T11:25:54.982Z,26.72
2022-07-30T11:26:52.700Z,26.80
2022-07-30T11:27:52.726Z,26.85
2022-07-30T11:28:52.760Z,26.80
2022-07-30T11:29:52.792Z,26.81
2022-07-30T11:30:52.826Z,26.60
2022-07-30T11:31:58.490Z,26.65
2022-07-30T11:32:52.891Z,26.55
2022-07-30T11:33:52.919Z,26.60
2022-07-30T11:34:52.949Z,26.66
2022-07-30T11:35:52.995Z,26.62
2022-07-30T11:36:53.028Z,26.76
2022-07-30T11:37:53.056Z,26.62
2022-07-30T11:38:53.085Z,26.75
2022-07-30T11:39:53.114Z,26.80
2022-07-30T11:40:53.146Z,26.88
2022-07-30T11:41:53.175Z,27.03
2022-07-30T11:42:53.243Z,27.18
2022-07-30T11:43:53.240Z,27.25
2022-07-30T11:44:53.275Z,27.25
2022-07-30T11:45:53.307Z,27.17
2022-07-30T11:46:53.344Z,27.22
2022-07-30T11:47:53.381Z,27.28
2022-07-30T11:48:53.443Z,27.31
2022-07-30T11:49:53.445Z,27.49
2022-07-30T11:50:53.472Z,27.65
2022-07-30T11:51:53.507Z,27.79
2022-07-30T11:52:53.552Z,27.82
2022-07-30T11:53:53.564Z,27.81
2022-07-30T11:54:53.602Z,27.63
2022-07-30T11:55:53.643Z,27.49
2022-07-30T11:56:53.669Z,27.41
2022-07-30T11:57:53.704Z,27.32
2022-07-30T11:58:53.731Z,27.37
2022-07-30T11:59:53.762Z,27.51
2022-07-30T12:00:53.800Z,27.66
2022-07-30T12:01:53.840Z,27.87
2022-07-30T12:02:54.063Z,27.84
2022-07-30T12:03:53.906Z,27.82
2022-07-30T12:04:53.929Z,27.78
2022-07-30T12:05:54.010Z,27.63
2022-07-30T12:06:53.995Z,27.50
2022-07-30T12:07:54.043Z,27.50
2022-07-30T12:08:58.533Z,27.55
2022-07-30T12:09:54.113Z,27.65
2022-07-30T12:10:54.132Z,27.51
2022-07-30T12:11:54.180Z,27.57
2022-07-30T12:12:54.199Z,27.49
2022-07-30T12:13:54.244Z,27.39
2022-07-30T12:14:56.988Z,27.41
2022-07-30T12:15:54.306Z,27.59
2022-07-30T12:16:54.339Z,27.59
2022-07-30T12:18:11.074Z,27.77
2022-07-30T12:18:54.396Z,27.93
2022-07-30T12:19:54.433Z,28.04
2022-07-30T12:20:54.493Z,28.14
2022-07-30T12:21:54.503Z,28.19
2022-07-30T12:22:54.532Z,28.03
2022-07-30T12:23:54.579Z,27.97
2022-07-30T12:24:54.633Z,27.97
2022-07-30T12:25:54.649Z,27.97
2022-07-30T12:26:54.664Z,28.02
2022-07-30T12:27:54.714Z,28.03
2022-07-30T12:28:54.737Z,28.04
2022-07-30T12:29:54.774Z,28.25
2022-07-30T12:30:54.799Z,28.40
2022-07-30T12:31:54.833Z,28.34
2022-07-30T12:32:54.864Z,28.37
2022-07-30T12:33:54.932Z,28.48
2022-07-30T12:34:54.930Z,28.54
2022-07-30T12:35:54.980Z,28.59
2022-07-30T12:36:55.006Z,28.62
2022-07-30T12:37:55.051Z,28.67
2022-07-30T12:38:55.071Z,28.67
2022-07-30T12:39:55.106Z,28.74
2022-07-30T12:40:55.135Z,28.77
2022-07-30T12:41:55.178Z,28.62
2022-07-30T12:42:55.202Z,28.41
2022-07-30T12:43:55.252Z,28.22
2022-07-30T12:44:55.267Z,27.93
2022-07-30T12:45:55.298Z,27.94
2022-07-30T12:46:55.340Z,27.79
2022-07-30T12:47:55.371Z,27.81
2022-07-30T12:48:55.460Z,27.87
2022-07-30T12:49:55.556Z,27.94
2022-07-30T12:50:55.477Z,27.94
2022-07-30T12:51:59.892Z,27.90
2022-07-30T12:52:55.538Z,27.88
2022-07-30T12:53:55.570Z,27.85
2022-07-30T12:54:55.604Z,27.88
2022-07-30T12:55:55.636Z,27.84
2022-07-30T12:56:55.674Z,28.02
2022-07-30T12:57:55.704Z,28.09
2022-07-30T12:58:55.742Z,28.11
2022-07-30T12:59:55.773Z,28.17